sensor_id;sensor_type;location;lat;lon;timestamp;P1;durP1;ratioP1;P2;durP2;ratioP2
53391;SDS011;41667;51.922;8.850;2022-09-25T00:01:56;34.70;;;19.40;;
53391;SDS011;41667;51.922;8.850;2022-09-25T00:04:22;35.13;;;19.85;;
53391;SDS011;41667;51.922;8.850;2022-09-25T00:06:47;36.47;;;20.23;;
53391;SDS011;41667;51.922;8.850;2022-09-25T00:09:13;35.35;;;19.67;;
53391;SDS011;41667;51.922;8.850;2022-09-25T00:11:38;33.17;;;19.38;;
53391;SDS011;41667;51.922;8.850;2022-09-25T00:14:03;32.40;;;20.00;;
53391;SDS011;41667;51.922;8.850;2022-09-25T00:16:29;36.10;;;20.90;;
53391;SDS011;41667;51.922;8.850;2022-09-25T00:18:55;43.10;;;21.38;;
53391;SDS011;41667;51.922;8.850;2022-09-25T00:21:39;36.55;;;20.15;;
53391;SDS011;41667;51.922;8.850;2022-09-25T00:24:08;34.65;;;19.15;;
53391;SDS011;41667;51.922;8.850;2022-09-25T00:26:35;33.22;;;18.58;;
53391;SDS011;41667;51.922;8.850;2022-09-25T00:29:01;38.42;;;21.48;;
53391;SDS011;41667;51.922;8.850;2022-09-25T00:31:27;34.28;;;20.55;;
53391;SDS011;41667;51.922;8.850;2022-09-25T00:33:53;32.25;;;18.75;;
53391;SDS011;41667;51.922;8.850;2022-09-25T00:36:20;39.90;;;20.33;;
53391;SDS011;41667;51.922;8.850;2022-09-25T00:38:45;38.67;;;19.17;;
53391;SDS011;41667;51.922;8.850;2022-09-25T00:41:13;34.55;;;19.73;;
53391;SDS011;41667;51.922;8.850;2022-09-25T00:43:43;35.28;;;18.73;;
53391;SDS011;41667;51.922;8.850;2022-09-25T00:46:12;35.65;;;18.80;;
53391;SDS011;41667;51.922;8.850;2022-09-25T00:48:41;34.40;;;18.83;;
53391;SDS011;41667;51.922;8.850;2022-09-25T00:51:07;39.42;;;19.38;;
53391;SDS011;41667;51.922;8.850;2022-09-25T00:53:34;27.00;;;15.87;;
53391;SDS011;41667;51.922;8.850;2022-09-25T00:56:00;31.67;;;16.08;;
53391;SDS011;41667;51.922;8.850;2022-09-25T00:58:26;31.25;;;16.85;;
53391;SDS011;41667;51.922;8.850;2022-09-25T01:00:52;27.85;;;15.70;;
53391;SDS011;41667;51.922;8.850;2022-09-25T01:03:18;29.92;;;16.02;;
53391;SDS011;41667;51.922;8.850;2022-09-25T01:05:44;24.73;;;15.93;;
53391;SDS011;41667;51.922;8.850;2022-09-25T01:08:10;30.38;;;15.82;;
53391;SDS011;41667;51.922;8.850;2022-09-25T01:10:36;31.67;;;17.45;;
53391;SDS011;41667;51.922;8.850;2022-09-25T01:13:01;35.38;;;17.30;;
53391;SDS011;41667;51.922;8.850;2022-09-25T01:15:30;27.67;;;16.63;;
53391;SDS011;41667;51.922;8.850;2022-09-25T01:18:21;25.48;;;13.68;;
53391;SDS011;41667;51.922;8.850;2022-09-25T01:21:08;22.55;;;14.13;;
53391;SDS011;41667;51.922;8.850;2022-09-25T01:26:25;30.55;;;13.80;;
53391;SDS011;41667;51.922;8.850;2022-09-25T01:31:23;25.55;;;13.48;;
53391;SDS011;41667;51.922;8.850;2022-09-25T01:33:54;23.70;;;13.15;;
53391;SDS011;41667;51.922;8.850;2022-09-25T01:38:49;27.02;;;12.18;;
53391;SDS011;41667;51.922;8.850;2022-09-25T01:43:43;22.95;;;12.23;;
53391;SDS011;41667;51.922;8.850;2022-09-25T01:46:14;20.10;;;11.80;;
53391;SDS011;41667;51.922;8.850;2022-09-25T01:48:41;18.50;;;12.02;;
53391;SDS011;41667;51.922;8.850;2022-09-25T01:51:09;23.02;;;13.18;;
53391;SDS011;41667;51.922;8.850;2022-09-25T01:53:40;21.58;;;12.75;;
53391;SDS011;41667;51.922;8.850;2022-09-25T01:56:07;24.15;;;11.63;;
53391;SDS011;41667;51.922;8.850;2022-09-25T02:01:04;17.42;;;11.02;;
53391;SDS011;41667;51.922;8.850;2022-09-25T02:03:31;15.20;;;9.60;;
53391;SDS011;41667;51.922;8.850;2022-09-25T02:06:00;22.13;;;10.02;;
53391;SDS011;41667;51.922;8.850;2022-09-25T02:08:28;18.20;;;10.18;;
53391;SDS011;41667;51.922;8.850;2022-09-25T02:10:55;20.23;;;10.13;;
53391;SDS011;41667;51.922;8.850;2022-09-25T02:13:22;18.98;;;10.13;;
53391;SDS011;41667;51.922;8.850;2022-09-25T02:15:55;17.80;;;9.18;;
53391;SDS011;41667;51.922;8.850;2022-09-25T02:18:20;17.42;;;10.43;;
53391;SDS011;41667;51.922;8.850;2022-09-25T02:21:11;22.88;;;9.93;;
53391;SDS011;41667;51.922;8.850;2022-09-25T02:28:35;20.40;;;10.70;;
53391;SDS011;41667;51.922;8.850;2022-09-25T02:31:01;15.40;;;9.97;;
53391;SDS011;41667;51.922;8.850;2022-09-25T02:33:27;17.05;;;9.75;;
53391;SDS011;41667;51.922;8.850;2022-09-25T02:35:53;22.77;;;11.27;;
53391;SDS011;41667;51.922;8.850;2022-09-25T02:38:18;23.17;;;11.15;;
53391;SDS011;41667;51.922;8.850;2022-09-25T02:43:19;17.20;;;9.30;;
53391;SDS011;41667;51.922;8.850;2022-09-25T02:45:52;14.35;;;8.07;;
53391;SDS011;41667;51.922;8.850;2022-09-25T02:48:31;20.27;;;9.55;;
53391;SDS011;41667;51.922;8.850;2022-09-25T02:51:23;17.00;;;9.05;;
53391;SDS011;41667;51.922;8.850;2022-09-25T02:54:03;13.48;;;7.55;;
53391;SDS011;41667;51.922;8.850;2022-09-25T02:56:32;17.27;;;7.53;;
53391;SDS011;41667;51.922;8.850;2022-09-25T02:59:00;12.10;;;7.60;;
53391;SDS011;41667;51.922;8.850;2022-09-25T03:01:26;15.90;;;7.03;;
53391;SDS011;41667;51.922;8.850;2022-09-25T03:03:55;17.52;;;6.97;;
53391;SDS011;41667;51.922;8.850;2022-09-25T03:06:21;16.67;;;7.10;;
53391;SDS011;41667;51.922;8.850;2022-09-25T03:08:47;16.15;;;7.38;;
53391;SDS011;41667;51.922;8.850;2022-09-25T03:11:16;16.08;;;7.10;;
53391;SDS011;41667;51.922;8.850;2022-09-25T03:13:42;13.57;;;6.43;;
53391;SDS011;41667;51.922;8.850;2022-09-25T03:16:12;18.13;;;7.30;;
53391;SDS011;41667;51.922;8.850;2022-09-25T03:18:38;21.15;;;7.22;;
53391;SDS011;41667;51.922;8.850;2022-09-25T03:21:03;14.20;;;7.17;;
53391;SDS011;41667;51.922;8.850;2022-09-25T03:23:29;10.77;;;5.72;;
53391;SDS011;41667;51.922;8.850;2022-09-25T03:25:55;10.20;;;5.68;;
53391;SDS011;41667;51.922;8.850;2022-09-25T03:28:20;13.65;;;5.93;;
53391;SDS011;41667;51.922;8.850;2022-09-25T03:30:54;16.60;;;5.47;;
53391;SDS011;41667;51.922;8.850;2022-09-25T03:33:19;10.73;;;5.70;;
53391;SDS011;41667;51.922;8.850;2022-09-25T03:35:44;9.02;;;5.43;;
53391;SDS011;41667;51.922;8.850;2022-09-25T03:38:09;12.00;;;5.15;;
53391;SDS011;41667;51.922;8.850;2022-09-25T03:40:36;10.30;;;5.95;;
53391;SDS011;41667;51.922;8.850;2022-09-25T03:43:01;14.65;;;6.38;;
53391;SDS011;41667;51.922;8.850;2022-09-25T03:45:26;11.70;;;6.60;;
53391;SDS011;41667;51.922;8.850;2022-09-25T03:47:51;8.67;;;4.83;;
53391;SDS011;41667;51.922;8.850;2022-09-25T03:50:17;10.68;;;6.47;;
53391;SDS011;41667;51.922;8.850;2022-09-25T03:52:42;8.13;;;5.20;;
53391;SDS011;41667;51.922;8.850;2022-09-25T03:55:07;12.50;;;5.10;;
53391;SDS011;41667;51.922;8.850;2022-09-25T03:57:32;18.73;;;5.30;;
53391;SDS011;41667;51.922;8.850;2022-09-25T03:59:58;9.93;;;5.63;;
53391;SDS011;41667;51.922;8.850;2022-09-25T04:02:26;17.67;;;5.88;;
53391;SDS011;41667;51.922;8.850;2022-09-25T04:04:52;12.38;;;5.30;;
53391;SDS011;41667;51.922;8.850;2022-09-25T04:07:18;10.18;;;5.32;;
53391;SDS011;41667;51.922;8.850;2022-09-25T04:09:44;10.57;;;5.35;;
53391;SDS011;41667;51.922;8.850;2022-09-25T04:12:09;9.90;;;4.90;;
53391;SDS011;41667;51.922;8.850;2022-09-25T04:14:35;16.70;;;5.57;;
53391;SDS011;41667;51.922;8.850;2022-09-25T04:17:00;14.65;;;4.80;;
53391;SDS011;41667;51.922;8.850;2022-09-25T04:19:25;14.50;;;4.70;;
53391;SDS011;41667;51.922;8.850;2022-09-25T04:21:51;7.97;;;4.20;;
53391;SDS011;41667;51.922;8.850;2022-09-25T04:24:16;8.63;;;4.45;;
53391;SDS011;41667;51.922;8.850;2022-09-25T04:27:00;5.38;;;3.83;;
53391;SDS011;41667;51.922;8.850;2022-09-25T04:29:25;11.83;;;5.30;;
53391;SDS011;41667;51.922;8.850;2022-09-25T04:31:50;9.57;;;4.13;;
53391;SDS011;41667;51.922;8.850;2022-09-25T04:34:35;12.32;;;5.30;;
53391;SDS011;41667;51.922;8.850;2022-09-25T04:37:00;7.23;;;3.80;;
53391;SDS011;41667;51.922;8.850;2022-09-25T04:39:26;10.97;;;4.70;;
53391;SDS011;41667;51.922;8.850;2022-09-25T04:41:51;9.32;;;4.72;;
53391;SDS011;41667;51.922;8.850;2022-09-25T04:44:16;16.08;;;5.50;;
53391;SDS011;41667;51.922;8.850;2022-09-25T04:46:41;12.93;;;4.50;;
53391;SDS011;41667;51.922;8.850;2022-09-25T04:49:07;15.80;;;5.03;;
53391;SDS011;41667;51.922;8.850;2022-09-25T04:51:32;8.13;;;4.27;;
53391;SDS011;41667;51.922;8.850;2022-09-25T04:53:57;14.63;;;5.30;;
53391;SDS011;41667;51.922;8.850;2022-09-25T04:56:23;16.48;;;4.63;;
53391;SDS011;41667;51.922;8.850;2022-09-25T04:58:50;7.22;;;4.43;;
53391;SDS011;41667;51.922;8.850;2022-09-25T05:01:16;9.27;;;4.93;;
53391;SDS011;41667;51.922;8.850;2022-09-25T05:03:50;18.67;;;4.97;;
53391;SDS011;41667;51.922;8.850;2022-09-25T05:06:17;11.90;;;4.72;;
53391;SDS011;41667;51.922;8.850;2022-09-25T05:08:42;12.35;;;4.18;;
53391;SDS011;41667;51.922;8.850;2022-09-25T05:11:07;10.40;;;5.07;;
53391;SDS011;41667;51.922;8.850;2022-09-25T05:13:33;13.15;;;5.20;;
53391;SDS011;41667;51.922;8.850;2022-09-25T05:15:58;10.70;;;5.05;;
53391;SDS011;41667;51.922;8.850;2022-09-25T05:18:23;7.40;;;3.88;;
53391;SDS011;41667;51.922;8.850;2022-09-25T05:20:48;10.27;;;4.40;;
53391;SDS011;41667;51.922;8.850;2022-09-25T05:23:14;7.50;;;4.03;;
53391;SDS011;41667;51.922;8.850;2022-09-25T05:25:39;9.00;;;3.88;;
53391;SDS011;41667;51.922;8.850;2022-09-25T05:28:05;12.80;;;4.03;;
53391;SDS011;41667;51.922;8.850;2022-09-25T05:30:31;9.02;;;4.60;;
53391;SDS011;41667;51.922;8.850;2022-09-25T05:32:57;9.45;;;4.82;;
53391;SDS011;41667;51.922;8.850;2022-09-25T05:35:22;12.17;;;4.93;;
53391;SDS011;41667;51.922;8.850;2022-09-25T05:37:48;8.30;;;4.25;;
53391;SDS011;41667;51.922;8.850;2022-09-25T05:40:13;10.38;;;4.50;;
53391;SDS011;41667;51.922;8.850;2022-09-25T05:42:39;7.97;;;4.35;;
53391;SDS011;41667;51.922;8.850;2022-09-25T05:45:05;9.68;;;4.55;;
53391;SDS011;41667;51.922;8.850;2022-09-25T05:47:30;11.48;;;4.68;;
53391;SDS011;41667;51.922;8.850;2022-09-25T05:49:55;9.93;;;3.60;;
53391;SDS011;41667;51.922;8.850;2022-09-25T05:52:20;23.47;;;5.60;;
53391;SDS011;41667;51.922;8.850;2022-09-25T05:54:46;8.97;;;3.63;;
53391;SDS011;41667;51.922;8.850;2022-09-25T05:57:11;5.75;;;4.18;;
53391;SDS011;41667;51.922;8.850;2022-09-25T05:59:36;8.77;;;4.13;;
53391;SDS011;41667;51.922;8.850;2022-09-25T06:02:01;9.30;;;3.90;;
53391;SDS011;41667;51.922;8.850;2022-09-25T06:04:26;7.83;;;3.57;;
53391;SDS011;41667;51.922;8.850;2022-09-25T06:06:51;9.95;;;3.35;;
53391;SDS011;41667;51.922;8.850;2022-09-25T06:09:17;9.82;;;3.85;;
53391;SDS011;41667;51.922;8.850;2022-09-25T06:11:42;6.25;;;2.95;;
53391;SDS011;41667;51.922;8.850;2022-09-25T06:14:11;6.30;;;3.20;;
53391;SDS011;41667;51.922;8.850;2022-09-25T06:16:37;7.30;;;2.40;;
53391;SDS011;41667;51.922;8.850;2022-09-25T06:19:02;6.75;;;2.67;;
53391;SDS011;41667;51.922;8.850;2022-09-25T06:21:27;8.52;;;2.95;;
53391;SDS011;41667;51.922;8.850;2022-09-25T06:23:52;8.15;;;2.67;;
53391;SDS011;41667;51.922;8.850;2022-09-25T06:26:19;17.58;;;6.05;;
53391;SDS011;41667;51.922;8.850;2022-09-25T06:28:45;7.93;;;2.47;;
53391;SDS011;41667;51.922;8.850;2022-09-25T06:31:10;4.88;;;2.20;;
53391;SDS011;41667;51.922;8.850;2022-09-25T06:33:35;5.85;;;2.53;;
53391;SDS011;41667;51.922;8.850;2022-09-25T06:36:00;8.03;;;2.00;;
53391;SDS011;41667;51.922;8.850;2022-09-25T06:38:26;7.22;;;1.77;;
53391;SDS011;41667;51.922;8.850;2022-09-25T06:40:51;7.90;;;2.03;;
53391;SDS011;41667;51.922;8.850;2022-09-25T06:43:16;3.80;;;1.85;;
53391;SDS011;41667;51.922;8.850;2022-09-25T06:45:41;9.10;;;2.17;;
53391;SDS011;41667;51.922;8.850;2022-09-25T06:48:08;4.95;;;2.17;;
53391;SDS011;41667;51.922;8.850;2022-09-25T06:50:41;8.48;;;2.40;;
53391;SDS011;41667;51.922;8.850;2022-09-25T06:53:07;5.38;;;2.13;;
53391;SDS011;41667;51.922;8.850;2022-09-25T06:55:33;7.53;;;1.80;;
53391;SDS011;41667;51.922;8.850;2022-09-25T06:58:01;13.05;;;2.15;;
53391;SDS011;41667;51.922;8.850;2022-09-25T07:00:27;8.00;;;1.85;;
53391;SDS011;41667;51.922;8.850;2022-09-25T07:02:52;8.25;;;1.77;;
53391;SDS011;41667;51.922;8.850;2022-09-25T07:05:36;5.63;;;2.22;;
53391;SDS011;41667;51.922;8.850;2022-09-25T07:08:01;6.97;;;1.52;;
53391;SDS011;41667;51.922;8.850;2022-09-25T07:10:27;6.70;;;1.90;;
53391;SDS011;41667;51.922;8.850;2022-09-25T07:12:52;9.37;;;3.57;;
53391;SDS011;41667;51.922;8.850;2022-09-25T07:15:18;7.93;;;1.55;;
53391;SDS011;41667;51.922;8.850;2022-09-25T07:17:43;5.78;;;2.17;;
53391;SDS011;41667;51.922;8.850;2022-09-25T07:20:09;7.60;;;2.20;;
53391;SDS011;41667;51.922;8.850;2022-09-25T07:22:36;14.05;;;3.92;;
53391;SDS011;41667;51.922;8.850;2022-09-25T07:25:01;9.00;;;3.20;;
53391;SDS011;41667;51.922;8.850;2022-09-25T07:27:27;8.65;;;2.65;;
53391;SDS011;41667;51.922;8.850;2022-09-25T07:29:53;7.85;;;3.53;;
53391;SDS011;41667;51.922;8.850;2022-09-25T07:32:19;11.68;;;3.60;;
53391;SDS011;41667;51.922;8.850;2022-09-25T07:34:44;8.43;;;3.28;;
53391;SDS011;41667;51.922;8.850;2022-09-25T07:37:11;16.42;;;3.05;;
53391;SDS011;41667;51.922;8.850;2022-09-25T07:39:36;5.97;;;3.55;;
53391;SDS011;41667;51.922;8.850;2022-09-25T07:42:01;9.35;;;2.90;;
53391;SDS011;41667;51.922;8.850;2022-09-25T07:44:27;12.80;;;3.58;;
53391;SDS011;41667;51.922;8.850;2022-09-25T07:46:52;8.45;;;3.55;;
53391;SDS011;41667;51.922;8.850;2022-09-25T07:49:18;7.60;;;2.08;;
53391;SDS011;41667;51.922;8.850;2022-09-25T07:51:43;7.18;;;2.78;;
53391;SDS011;41667;51.922;8.850;2022-09-25T07:54:08;6.22;;;2.72;;
53391;SDS011;41667;51.922;8.850;2022-09-25T07:56:33;9.52;;;2.42;;
53391;SDS011;41667;51.922;8.850;2022-09-25T07:58:59;10.98;;;3.45;;
53391;SDS011;41667;51.922;8.850;2022-09-25T08:01:24;6.78;;;3.30;;
53391;SDS011;41667;51.922;8.850;2022-09-25T08:03:49;8.70;;;3.40;;
53391;SDS011;41667;51.922;8.850;2022-09-25T08:06:15;11.05;;;4.60;;
53391;SDS011;41667;51.922;8.850;2022-09-25T08:08:40;16.37;;;6.77;;
53391;SDS011;41667;51.922;8.850;2022-09-25T08:11:10;23.13;;;10.13;;
53391;SDS011;41667;51.922;8.850;2022-09-25T08:13:35;17.58;;;5.82;;
53391;SDS011;41667;51.922;8.850;2022-09-25T08:16:02;8.90;;;3.75;;
53391;SDS011;41667;51.922;8.850;2022-09-25T08:18:27;52.45;;;26.63;;
53391;SDS011;41667;51.922;8.850;2022-09-25T08:20:53;21.48;;;13.30;;
53391;SDS011;41667;51.922;8.850;2022-09-25T08:23:18;11.13;;;5.27;;
53391;SDS011;41667;51.922;8.850;2022-09-25T08:25:47;12.20;;;8.40;;
53391;SDS011;41667;51.922;8.850;2022-09-25T08:28:13;7.90;;;3.72;;
53391;SDS011;41667;51.922;8.850;2022-09-25T08:30:39;8.00;;;3.35;;
53391;SDS011;41667;51.922;8.850;2022-09-25T08:33:08;16.83;;;9.80;;
53391;SDS011;41667;51.922;8.850;2022-09-25T08:35:34;10.52;;;6.00;;
53391;SDS011;41667;51.922;8.850;2022-09-25T08:37:59;8.10;;;4.38;;
53391;SDS011;41667;51.922;8.850;2022-09-25T08:40:25;8.27;;;2.97;;
53391;SDS011;41667;51.922;8.850;2022-09-25T08:42:51;7.05;;;3.05;;
53391;SDS011;41667;51.922;8.850;2022-09-25T08:45:22;18.67;;;5.75;;
53391;SDS011;41667;51.922;8.850;2022-09-25T08:48:08;14.27;;;9.27;;
53391;SDS011;41667;51.922;8.850;2022-09-25T08:50:55;8.25;;;4.88;;
53391;SDS011;41667;51.922;8.850;2022-09-25T08:53:22;4.90;;;3.33;;
53391;SDS011;41667;51.922;8.850;2022-09-25T08:55:48;5.10;;;3.97;;
53391;SDS011;41667;51.922;8.850;2022-09-25T08:58:33;4.22;;;3.70;;
53391;SDS011;41667;51.922;8.850;2022-09-25T09:01:05;8.48;;;3.67;;
53391;SDS011;41667;51.922;8.850;2022-09-25T09:03:31;7.20;;;4.20;;
53391;SDS011;41667;51.922;8.850;2022-09-25T09:06:01;6.93;;;4.60;;
53391;SDS011;41667;51.922;8.850;2022-09-25T09:08:27;7.90;;;3.58;;
53391;SDS011;41667;51.922;8.850;2022-09-25T09:10:56;7.30;;;3.42;;
53391;SDS011;41667;51.922;8.850;2022-09-25T09:13:26;9.93;;;4.80;;
53391;SDS011;41667;51.922;8.850;2022-09-25T09:18:22;9.82;;;3.90;;
53391;SDS011;41667;51.922;8.850;2022-09-25T09:20:57;5.95;;;4.75;;
53391;SDS011;41667;51.922;8.850;2022-09-25T09:23:24;6.63;;;3.75;;
53391;SDS011;41667;51.922;8.850;2022-09-25T09:25:59;6.87;;;2.97;;
53391;SDS011;41667;51.922;8.850;2022-09-25T09:31:12;6.30;;;3.83;;
53391;SDS011;41667;51.922;8.850;2022-09-25T09:33:49;4.05;;;3.22;;
53391;SDS011;41667;51.922;8.850;2022-09-25T09:36:32;5.07;;;2.80;;
53391;SDS011;41667;51.922;8.850;2022-09-25T09:41:30;5.40;;;3.43;;
53391;SDS011;41667;51.922;8.850;2022-09-25T09:44:11;11.77;;;3.63;;
53391;SDS011;41667;51.922;8.850;2022-09-25T09:47:00;4.05;;;2.38;;
53391;SDS011;41667;51.922;8.850;2022-09-25T09:51:57;3.25;;;2.03;;
53391;SDS011;41667;51.922;8.850;2022-09-25T09:54:26;13.75;;;1.90;;
53391;SDS011;41667;51.922;8.850;2022-09-25T09:56:56;3.35;;;2.20;;
53391;SDS011;41667;51.922;8.850;2022-09-25T09:59:26;7.47;;;2.25;;
53391;SDS011;41667;51.922;8.850;2022-09-25T10:01:58;3.38;;;1.60;;
53391;SDS011;41667;51.922;8.850;2022-09-25T10:04:25;8.77;;;2.05;;
53391;SDS011;41667;51.922;8.850;2022-09-25T10:06:56;1.45;;;1.35;;
53391;SDS011;41667;51.922;8.850;2022-09-25T10:09:21;2.97;;;1.85;;
53391;SDS011;41667;51.922;8.850;2022-09-25T10:11:51;2.55;;;1.75;;
53391;SDS011;41667;51.922;8.850;2022-09-25T10:14:20;4.07;;;1.58;;
53391;SDS011;41667;51.922;8.850;2022-09-25T10:16:49;4.85;;;1.92;;
53391;SDS011;41667;51.922;8.850;2022-09-25T10:19:20;2.70;;;1.45;;
53391;SDS011;41667;51.922;8.850;2022-09-25T10:24:44;4.13;;;1.90;;
53391;SDS011;41667;51.922;8.850;2022-09-25T10:27:26;7.93;;;1.33;;
53391;SDS011;41667;51.922;8.850;2022-09-25T10:29:59;6.20;;;1.52;;
53391;SDS011;41667;51.922;8.850;2022-09-25T10:32:25;2.78;;;1.60;;
53391;SDS011;41667;51.922;8.850;2022-09-25T10:34:51;2.75;;;2.17;;
53391;SDS011;41667;51.922;8.850;2022-09-25T10:37:17;3.90;;;1.58;;
53391;SDS011;41667;51.922;8.850;2022-09-25T10:39:45;3.60;;;1.48;;
53391;SDS011;41667;51.922;8.850;2022-09-25T10:42:31;4.10;;;1.20;;
53391;SDS011;41667;51.922;8.850;2022-09-25T10:44:58;4.13;;;1.23;;
53391;SDS011;41667;51.922;8.850;2022-09-25T10:52:48;5.07;;;1.48;;
53391;SDS011;41667;51.922;8.850;2022-09-25T10:55:19;1.98;;;1.10;;
53391;SDS011;41667;51.922;8.850;2022-09-25T10:57:44;2.42;;;1.30;;
53391;SDS011;41667;51.922;8.850;2022-09-25T11:00:20;2.08;;;1.10;;
53391;SDS011;41667;51.922;8.850;2022-09-25T11:02:46;4.88;;;1.15;;
53391;SDS011;41667;51.922;8.850;2022-09-25T11:05:19;2.47;;;1.35;;
53391;SDS011;41667;51.922;8.850;2022-09-25T11:07:49;1.13;;;0.80;;
53391;SDS011;41667;51.922;8.850;2022-09-25T11:10:23;2.90;;;1.15;;
53391;SDS011;41667;51.922;8.850;2022-09-25T11:12:50;2.92;;;1.00;;
53391;SDS011;41667;51.922;8.850;2022-09-25T11:15:17;4.30;;;1.08;;
53391;SDS011;41667;51.922;8.850;2022-09-25T11:17:43;1.65;;;1.15;;
53391;SDS011;41667;51.922;8.850;2022-09-25T11:22:40;1.85;;;1.17;;
53391;SDS011;41667;51.922;8.850;2022-09-25T11:25:12;2.08;;;1.10;;
53391;SDS011;41667;51.922;8.850;2022-09-25T11:30:09;7.20;;;2.77;;
53391;SDS011;41667;51.922;8.850;2022-09-25T11:37:51;2.05;;;1.08;;
53391;SDS011;41667;51.922;8.850;2022-09-25T11:40:33;0.95;;;0.93;;
53391;SDS011;41667;51.922;8.850;2022-09-25T11:44:06;1.95;;;1.10;;
53391;SDS011;41667;51.922;8.850;2022-09-25T11:46:09;2.28;;;1.02;;
53391;SDS011;41667;51.922;8.850;2022-09-25T11:48:46;2.33;;;1.27;;
53391;SDS011;41667;51.922;8.850;2022-09-25T11:51:30;6.60;;;1.20;;
53391;SDS011;41667;51.922;8.850;2022-09-25T11:54:13;2.50;;;1.48;;
53391;SDS011;41667;51.922;8.850;2022-09-25T11:59:20;2.92;;;1.35;;
53391;SDS011;41667;51.922;8.850;2022-09-25T12:01:48;3.95;;;1.42;;
53391;SDS011;41667;51.922;8.850;2022-09-25T12:04:30;4.32;;;1.50;;
53391;SDS011;41667;51.922;8.850;2022-09-25T12:07:12;3.08;;;1.58;;
53391;SDS011;41667;51.922;8.850;2022-09-25T12:12:15;11.70;;;5.95;;
53391;SDS011;41667;51.922;8.850;2022-09-25T12:17:40;42.63;;;13.95;;
53391;SDS011;41667;51.922;8.850;2022-09-25T12:20:27;15.77;;;5.50;;
53391;SDS011;41667;51.922;8.850;2022-09-25T12:23:11;15.15;;;4.63;;
53391;SDS011;41667;51.922;8.850;2022-09-25T12:28:59;4.78;;;2.63;;
53391;SDS011;41667;51.922;8.850;2022-09-25T12:31:09;3.85;;;1.67;;
53391;SDS011;41667;51.922;8.850;2022-09-25T12:33:57;1.75;;;1.27;;
53391;SDS011;41667;51.922;8.850;2022-09-25T12:36:26;1.42;;;1.33;;
53391;SDS011;41667;51.922;8.850;2022-09-25T12:39:01;18.67;;;9.60;;
53391;SDS011;41667;51.922;8.850;2022-09-25T12:41:40;7.45;;;2.45;;
53391;SDS011;41667;51.922;8.850;2022-09-25T12:44:13;4.35;;;1.45;;
53391;SDS011;41667;51.922;8.850;2022-09-25T12:46:42;4.65;;;2.20;;
53391;SDS011;41667;51.922;8.850;2022-09-25T12:49:16;1.60;;;0.75;;
53391;SDS011;41667;51.922;8.850;2022-09-25T12:51:44;2.42;;;1.08;;
53391;SDS011;41667;51.922;8.850;2022-09-25T12:59:14;8.90;;;4.32;;
53391;SDS011;41667;51.922;8.850;2022-09-25T13:07:05;12.02;;;5.13;;
53391;SDS011;41667;51.922;8.850;2022-09-25T13:09:41;1.85;;;1.30;;
53391;SDS011;41667;51.922;8.850;2022-09-25T13:12:18;2.10;;;0.95;;
53391;SDS011;41667;51.922;8.850;2022-09-25T13:14:47;4.88;;;1.00;;
53391;SDS011;41667;51.922;8.850;2022-09-25T13:17:16;1.45;;;1.10;;
53391;SDS011;41667;51.922;8.850;2022-09-25T13:19:48;3.50;;;2.75;;
53391;SDS011;41667;51.922;8.850;2022-09-25T13:24:45;4.18;;;1.10;;
53391;SDS011;41667;51.922;8.850;2022-09-25T13:27:17;1.50;;;1.40;;
53391;SDS011;41667;51.922;8.850;2022-09-25T13:29:43;4.25;;;2.50;;
53391;SDS011;41667;51.922;8.850;2022-09-25T13:32:18;3.83;;;3.05;;
53391;SDS011;41667;51.922;8.850;2022-09-25T13:34:44;5.38;;;3.00;;
53391;SDS011;41667;51.922;8.850;2022-09-25T13:37:11;1.35;;;1.05;;
53391;SDS011;41667;51.922;8.850;2022-09-25T13:39:38;1.10;;;1.10;;
53391;SDS011;41667;51.922;8.850;2022-09-25T13:42:24;2.38;;;1.10;;
53391;SDS011;41667;51.922;8.850;2022-09-25T13:45:03;2.90;;;1.00;;
53391;SDS011;41667;51.922;8.850;2022-09-25T13:47:37;3.60;;;1.80;;
53391;SDS011;41667;51.922;8.850;2022-09-25T13:50:10;5.70;;;3.15;;
53391;SDS011;41667;51.922;8.850;2022-09-25T13:55:17;6.32;;;2.25;;
53391;SDS011;41667;51.922;8.850;2022-09-25T14:00:21;3.78;;;1.90;;
53391;SDS011;41667;51.922;8.850;2022-09-25T14:02:47;6.63;;;3.63;;
53391;SDS011;41667;51.922;8.850;2022-09-25T14:05:14;3.90;;;1.42;;
53391;SDS011;41667;51.922;8.850;2022-09-25T14:07:40;4.05;;;1.02;;
53391;SDS011;41667;51.922;8.850;2022-09-25T14:10:07;3.80;;;0.82;;
53391;SDS011;41667;51.922;8.850;2022-09-25T14:12:40;4.82;;;2.65;;
53391;SDS011;41667;51.922;8.850;2022-09-25T14:17:31;3.35;;;2.00;;
53391;SDS011;41667;51.922;8.850;2022-09-25T14:19:59;2.03;;;1.35;;
53391;SDS011;41667;51.922;8.850;2022-09-25T14:24:50;3.25;;;1.05;;
53391;SDS011;41667;51.922;8.850;2022-09-25T14:27:18;2.88;;;0.95;;
53391;SDS011;41667;51.922;8.850;2022-09-25T14:29:45;3.83;;;1.20;;
53391;SDS011;41667;51.922;8.850;2022-09-25T14:35:05;1.88;;;1.02;;
53391;SDS011;41667;51.922;8.850;2022-09-25T14:37:53;3.72;;;1.00;;
53391;SDS011;41667;51.922;8.850;2022-09-25T14:40:21;1.20;;;1.10;;
53391;SDS011;41667;51.922;8.850;2022-09-25T14:42:56;4.90;;;1.42;;
53391;SDS011;41667;51.922;8.850;2022-09-25T14:45:29;2.97;;;1.00;;
53391;SDS011;41667;51.922;8.850;2022-09-25T14:47:58;2.72;;;0.85;;
53391;SDS011;41667;51.922;8.850;2022-09-25T14:50:25;20.25;;;7.00;;
53391;SDS011;41667;51.922;8.850;2022-09-25T14:52:51;15.27;;;5.53;;
53391;SDS011;41667;51.922;8.850;2022-09-25T14:55:18;67.65;;;19.63;;
53391;SDS011;41667;51.922;8.850;2022-09-25T14:57:45;47.42;;;16.02;;
53391;SDS011;41667;51.922;8.850;2022-09-25T15:00:14;49.90;;;13.30;;
53391;SDS011;41667;51.922;8.850;2022-09-25T15:02:40;42.05;;;10.43;;
53391;SDS011;41667;51.922;8.850;2022-09-25T15:05:17;145.55;;;34.80;;
53391;SDS011;41667;51.922;8.850;2022-09-25T15:07:43;8.55;;;2.33;;
53391;SDS011;41667;51.922;8.850;2022-09-25T15:12:52;24.75;;;7.03;;
53391;SDS011;41667;51.922;8.850;2022-09-25T15:15:18;37.70;;;11.50;;
53391;SDS011;41667;51.922;8.850;2022-09-25T15:17:49;5.95;;;2.30;;
53391;SDS011;41667;51.922;8.850;2022-09-25T15:20:20;10.02;;;3.83;;
53391;SDS011;41667;51.922;8.850;2022-09-25T15:22:47;17.00;;;4.55;;
53391;SDS011;41667;51.922;8.850;2022-09-25T15:25:20;4.32;;;1.73;;
53391;SDS011;41667;51.922;8.850;2022-09-25T15:27:45;3.58;;;1.63;;
53391;SDS011;41667;51.922;8.850;2022-09-25T15:30:17;6.33;;;1.80;;
53391;SDS011;41667;51.922;8.850;2022-09-25T15:32:42;8.48;;;1.48;;
53391;SDS011;41667;51.922;8.850;2022-09-25T15:37:38;2.80;;;1.00;;
53391;SDS011;41667;51.922;8.850;2022-09-25T15:40:25;6.65;;;1.20;;
53391;SDS011;41667;51.922;8.850;2022-09-25T15:42:52;3.08;;;1.27;;
53391;SDS011;41667;51.922;8.850;2022-09-25T15:48:07;3.60;;;1.05;;
53391;SDS011;41667;51.922;8.850;2022-09-25T15:50:32;6.97;;;1.42;;
53391;SDS011;41667;51.922;8.850;2022-09-25T15:52:59;3.58;;;1.85;;
53391;SDS011;41667;51.922;8.850;2022-09-25T15:55:24;6.57;;;1.30;;
53391;SDS011;41667;51.922;8.850;2022-09-25T15:57:52;2.67;;;1.00;;
53391;SDS011;41667;51.922;8.850;2022-09-25T16:00:23;1.88;;;0.95;;
53391;SDS011;41667;51.922;8.850;2022-09-25T16:03:17;1.10;;;0.90;;
53391;SDS011;41667;51.922;8.850;2022-09-25T16:06:02;2.03;;;1.30;;
53391;SDS011;41667;51.922;8.850;2022-09-25T16:11:03;4.68;;;1.05;;
53391;SDS011;41667;51.922;8.850;2022-09-25T16:13:29;4.68;;;1.00;;
53391;SDS011;41667;51.922;8.850;2022-09-25T16:15:54;1.63;;;0.70;;
53391;SDS011;41667;51.922;8.850;2022-09-25T16:18:24;4.97;;;0.80;;
53391;SDS011;41667;51.922;8.850;2022-09-25T16:20:55;4.32;;;1.30;;
53391;SDS011;41667;51.922;8.850;2022-09-25T16:23:25;2.35;;;0.90;;
53391;SDS011;41667;51.922;8.850;2022-09-25T16:25:52;1.98;;;1.00;;
53391;SDS011;41667;51.922;8.850;2022-09-25T16:28:19;1.13;;;0.93;;